Stony Brook, Massachusetts
Current Conditions -  °F | °C
As of 10:56 PM on Tuesday 21 Oct 2014 (Local Time) from KBED Reporting Station
Haze Haze  
Wind Chill: 51°   Ceiling: 500
Heat Index: 51°   Visibility: 5mi
Dew Point: 50°   Wind: 10mph
Humidity: 96%   Direction: 10°N
Pressure: 29.99"   Gusts: NA
Location:  42.359°N, 71.3°W
Report Text: KBED 220256Z AUTO 01009KT 5SM BR OVC005 11/10 A2999 RMK AO2 SLP169 T01060100 51018 TSNO
Loading
Personal Weather Stations






























Interactive Weather Map
Tropical Storm Tracking
New forecast layout! Learn more

10-Day Weather Forecast

Advertisements
Track Severe Weather on mobile